Time;durP1;ratioP1;P1;durP2;ratioP2;P2;SDS_P1;SDS_P2;PMS_P1;PMS_P2;Temp;Humidity;BMP_temperature;BMP_pressure;BME280_temperature;BME280_humidity;BME280_pressure;Samples;Min_cycle;Max_cycle;Signal;HPM_P1;HPM_P2
2022/10/02 00:00:28;;;;;;;12.60;2.07;;;9.60;99.90;;;;;;5020525;28;20442;-62
2022/10/02 00:03:16;;;;;;;5.33;2.30;;;9.60;99.90;;;;;;5027183;28;20457;-62
2022/10/02 00:05:51;;;;;;;8.93;1.90;;;9.60;99.90;;;;;;5026380;28;20441;-59
2022/10/02 00:08:24;;;;;;;5.80;1.90;;;9.70;99.90;;;;;;5021851;28;20435;-62
2022/10/02 00:10:52;;;;;;;6.20;2.40;;;9.70;99.90;;;;;;5017120;28;20526;-62
2022/10/02 00:13:24;;;;;;;2.57;2.30;;;9.60;99.90;;;;;;5024907;28;21012;-63
2022/10/02 00:15:52;;;;;;;8.03;2.27;;;9.60;99.90;;;;;;5021138;28;20430;-64
2022/10/02 00:18:23;;;;;;;2.70;2.50;;;9.60;99.90;;;;;;5022106;28;20972;-63
2022/10/02 00:21:04;;;;;;;3.47;2.00;;;9.60;99.90;;;;;;5027144;28;20492;-64
2022/10/02 00:23:38;;;;;;;5.43;2.27;;;9.50;99.90;;;;;;5024187;28;20486;-62
2022/10/02 00:26:24;;;;;;;2.40;2.20;;;9.50;99.90;;;;;;5040464;28;20434;-62
2022/10/02 00:29:23;;;;;;;2.90;1.80;;;9.50;99.90;;;;;;5024200;28;20444;-62
2022/10/02 00:32:05;;;;;;;2.60;2.13;;;9.50;99.90;;;;;;5028550;28;20488;-62
2022/10/02 00:34:37;;;;;;;7.60;2.30;;;9.40;99.90;;;;;;5028418;28;20418;-62
2022/10/02 00:37:10;;;;;;;3.40;2.07;;;9.40;99.90;;;;;;5025132;28;20956;-61
2022/10/02 00:39:54;;;;;;;5.63;1.90;;;9.40;99.90;;;;;;5029415;28;20438;-60
2022/10/02 00:42:20;;;;;;;4.47;2.00;;;9.40;99.90;;;;;;5027616;28;20546;-59
2022/10/02 00:44:45;;;;;;;2.00;1.90;;;9.50;99.90;;;;;;5026428;28;20525;-61
2022/10/02 00:47:26;;;;;;;4.30;2.10;;;9.50;99.90;;;;;;5035459;28;20179;-61
2022/10/02 00:50:01;;;;;;;3.27;1.73;;;9.50;99.90;;;;;;5030262;28;20183;-62
2022/10/02 00:52:26;;;;;;;4.20;1.70;;;9.50;99.90;;;;;;5059457;28;21061;-59
2022/10/02 00:55:07;;;;;;;2.63;1.80;;;9.50;99.90;;;;;;5025619;28;20434;-62
2022/10/02 00:58:10;;;;;;;4.20;2.13;;;9.50;99.90;;;;;;5015720;28;20214;-61
2022/10/02 01:00:36;;;;;;;6.90;2.00;;;9.50;99.90;;;;;;5042291;28;20437;-62
2022/10/02 01:03:02;;;;;;;4.27;2.17;;;9.50;99.90;;;;;;5018326;28;22204;-63
2022/10/02 01:05:28;;;;;;;5.27;2.60;;;9.50;99.90;;;;;;5028257;28;20496;-62
2022/10/02 01:07:54;;;;;;;2.17;1.90;;;9.50;99.90;;;;;;5028537;28;20176;-63
2022/10/02 01:10:21;;;;;;;3.70;2.33;;;9.50;99.90;;;;;;5024584;28;20202;-62
2022/10/02 01:12:48;;;;;;;5.70;2.10;;;9.60;99.90;;;;;;5030045;28;20569;-63
2022/10/02 01:15:17;;;;;;;4.57;2.00;;;9.60;99.90;;;;;;5024381;28;20522;-61
2022/10/02 01:17:45;;;;;;;3.07;1.77;;;9.60;99.90;;;;;;5028494;28;20450;-62
2022/10/02 01:20:16;;;;;;;2.30;1.80;;;9.60;99.90;;;;;;5028113;28;20564;-62
2022/10/02 01:22:53;;;;;;;2.00;1.50;;;9.60;99.90;;;;;;5029721;28;20482;-63
2022/10/02 01:25:19;;;;;;;1.70;1.60;;;9.60;99.90;;;;;;5024296;28;20524;-61
2022/10/02 01:27:45;;;;;;;3.93;1.90;;;9.60;99.90;;;;;;5041166;28;20431;-63
2022/10/02 01:30:15;;;;;;;2.93;2.13;;;9.60;99.90;;;;;;5027324;28;20484;-61
2022/10/02 01:32:54;;;;;;;1.73;1.63;;;9.70;99.90;;;;;;5027387;28;20227;-63
2022/10/02 01:35:25;;;;;;;3.07;1.70;;;9.70;99.90;;;;;;5024736;28;20454;-62
2022/10/02 01:37:52;;;;;;;2.40;1.70;;;9.60;99.90;;;;;;5025575;28;20479;-60
2022/10/02 01:40:28;;;;;;;3.97;2.37;;;9.60;99.90;;;;;;5020287;28;20451;-61
2022/10/02 01:45:54;;;;;;;2.03;1.80;;;9.60;99.90;;;;;;5011317;28;20465;-64
2022/10/02 01:48:36;;;;;;;5.93;2.40;;;9.60;99.90;;;;;;5004478;28;20515;-64
2022/10/02 01:51:20;;;;;;;2.87;2.00;;;9.60;99.90;;;;;;5016082;28;20419;-64
2022/10/02 01:54:04;;;;;;;2.63;1.53;;;9.60;99.90;;;;;;5023298;28;20997;-64
2022/10/02 01:56:41;;;;;;;3.77;1.80;;;9.60;99.90;;;;;;5009441;28;20514;-63
2022/10/02 01:59:16;;;;;;;3.50;2.00;;;9.60;99.90;;;;;;5006617;28;20429;-64
2022/10/02 02:01:54;;;;;;;5.17;2.00;;;9.70;99.90;;;;;;5009070;28;20443;-65
2022/10/02 02:04:23;;;;;;;6.20;2.20;;;9.70;99.90;;;;;;5002647;28;20462;-64
2022/10/02 02:07:18;;;;;;;3.50;1.90;;;9.80;99.90;;;;;;5005900;28;20467;-64
2022/10/02 02:10:20;;;;;;;6.33;1.87;;;9.80;99.90;;;;;;5005360;28;20449;-63
2022/10/02 02:12:56;;;;;;;2.77;1.80;;;9.80;99.90;;;;;;5004202;28;20490;-64
2022/10/02 02:15:30;;;;;;;4.10;1.70;;;9.80;99.90;;;;;;5004832;28;20451;-64
2022/10/02 02:18:02;;;;;;;5.83;2.07;;;9.80;99.90;;;;;;4998737;28;20427;-64
2022/10/02 02:20:33;;;;;;;2.70;1.70;;;9.80;99.90;;;;;;5014714;28;20431;-64
2022/10/02 02:23:05;;;;;;;4.27;2.00;;;9.80;99.90;;;;;;5007242;28;20946;-63
2022/10/02 02:25:36;;;;;;;2.33;1.67;;;9.80;99.90;;;;;;5013302;28;20446;-63
2022/10/02 02:28:08;;;;;;;6.57;1.80;;;9.80;99.90;;;;;;5003728;28;20442;-64
2022/10/02 02:30:36;;;;;;;1.70;1.37;;;9.80;99.90;;;;;;5004075;28;20440;-64
2022/10/02 02:33:10;;;;;;;3.60;2.30;;;9.80;99.90;;;;;;5002236;28;20945;-64
2022/10/02 02:35:44;;;;;;;6.43;2.23;;;9.80;99.90;;;;;;5008992;28;20438;-64
2022/10/02 02:38:23;;;;;;;3.33;1.67;;;9.80;99.90;;;;;;5008089;28;20446;-64
2022/10/02 02:40:50;;;;;;;4.53;1.80;;;9.80;99.90;;;;;;5008868;28;20507;-64
2022/10/02 02:43:28;;;;;;;2.33;1.80;;;9.90;99.90;;;;;;5015340;28;20434;-64
2022/10/02 02:45:55;;;;;;;6.00;1.90;;;9.90;99.90;;;;;;5002794;28;20546;-64
2022/10/02 02:48:25;;;;;;;2.90;1.90;;;9.90;99.90;;;;;;5010186;28;20481;-65
2022/10/02 02:51:02;;;;;;;4.00;2.00;;;9.80;99.90;;;;;;5006902;28;20435;-64
2022/10/02 02:53:37;;;;;;;2.10;1.67;;;9.90;99.90;;;;;;5005724;28;20459;-65
2022/10/02 02:56:07;;;;;;;2.23;1.67;;;9.90;99.90;;;;;;5012792;28;20962;-64
2022/10/02 02:58:38;;;;;;;3.27;1.97;;;9.90;99.90;;;;;;5005524;28;20443;-63
2022/10/02 03:01:04;;;;;;;6.00;1.83;;;9.90;99.90;;;;;;5006989;28;20785;-64
2022/10/02 03:03:30;;;;;;;4.43;2.20;;;9.90;99.90;;;;;;5004653;28;20537;-64
2022/10/02 03:06:03;;;;;;;1.93;1.63;;;10.00;99.90;;;;;;5009355;28;20674;-64
2022/10/02 03:08:32;;;;;;;3.60;1.80;;;10.00;99.90;;;;;;5004446;28;20267;-64
2022/10/02 03:11:06;;;;;;;3.97;2.10;;;10.00;99.90;;;;;;5009037;28;20428;-64
2022/10/02 03:13:50;;;;;;;3.87;2.00;;;10.00;99.90;;;;;;5002772;28;20466;-63
2022/10/02 03:16:18;;;;;;;2.43;2.20;;;9.90;99.90;;;;;;5009564;28;20980;-64
2022/10/02 03:19:03;;;;;;;3.40;1.87;;;9.90;99.90;;;;;;5007756;28;20442;-64
2022/10/02 03:21:38;;;;;;;3.70;1.80;;;9.90;99.90;;;;;;5005799;28;20873;-65
2022/10/02 03:24:28;;;;;;;2.33;2.07;;;10.00;99.90;;;;;;5007631;28;20481;-64
2022/10/02 03:27:16;;;;;;;3.87;1.87;;;10.00;99.90;;;;;;5006128;28;20453;-64
2022/10/02 03:30:07;;;;;;;4.50;2.07;;;10.00;99.90;;;;;;5007093;28;21081;-65
2022/10/02 03:32:34;;;;;;;6.50;2.00;;;10.00;99.90;;;;;;5005534;28;20467;-65
2022/10/02 03:35:01;;;;;;;4.07;2.57;;;10.00;99.90;;;;;;4999175;28;20482;-63
2022/10/02 03:37:28;;;;;;;3.23;2.07;;;10.00;99.90;;;;;;5004303;28;20497;-64
2022/10/02 03:40:00;;;;;;;7.17;2.20;;;10.00;99.90;;;;;;4997198;28;20443;-64
2022/10/02 03:42:29;;;;;;;5.77;2.20;;;10.10;99.90;;;;;;5004177;28;21004;-63
2022/10/02 03:44:55;;;;;;;6.10;1.93;;;10.10;99.90;;;;;;5002852;28;20478;-62
2022/10/02 03:47:20;;;;;;;3.33;1.93;;;10.10;99.90;;;;;;5000359;28;20440;-64
2022/10/02 03:49:46;;;;;;;3.70;1.80;;;10.10;99.90;;;;;;4998327;28;20176;-63
2022/10/02 03:52:20;;;;;;;2.93;1.90;;;10.10;99.90;;;;;;5005567;28;20188;-65
2022/10/02 03:54:50;;;;;;;4.20;2.10;;;10.10;99.90;;;;;;5012020;28;20227;-63
2022/10/02 03:57:22;;;;;;;13.40;2.10;;;10.10;99.90;;;;;;5007669;28;20827;-64
2022/10/02 04:00:00;;;;;;;5.83;2.00;;;10.10;99.90;;;;;;5001873;28;20442;-64
2022/10/02 04:02:39;;;;;;;2.90;2.00;;;10.20;99.90;;;;;;5008682;28;20435;-64
2022/10/02 04:05:19;;;;;;;2.57;1.80;;;10.20;99.90;;;;;;5008760;28;20433;-64
2022/10/02 04:07:49;;;;;;;5.47;1.87;;;10.20;99.90;;;;;;5005993;28;20948;-64
2022/10/02 04:10:49;;;;;;;2.33;1.70;;;10.30;99.90;;;;;;5018946;28;20435;-63
2022/10/02 04:13:28;;;;;;;4.57;1.90;;;10.30;99.90;;;;;;5010981;28;20463;-64
2022/10/02 04:16:22;;;;;;;5.63;2.13;;;10.30;99.90;;;;;;5016618;28;20530;-64
2022/10/02 04:19:10;;;;;;;1.97;1.73;;;10.30;99.90;;;;;;5008576;28;20429;-64
2022/10/02 04:21:56;;;;;;;2.97;1.70;;;10.40;99.90;;;;;;5010103;28;20845;-64
2022/10/02 04:24:38;;;;;;;5.83;2.23;;;10.40;99.90;;;;;;5020124;28;20442;-64
2022/10/02 04:27:06;;;;;;;5.40;2.70;;;10.40;99.90;;;;;;5010888;28;20510;-64
2022/10/02 04:29:41;;;;;;;2.20;1.97;;;10.40;99.90;;;;;;5011506;28;20980;-64
2022/10/02 04:32:22;;;;;;;7.33;2.40;;;10.40;99.90;;;;;;5007431;28;20985;-64
2022/10/02 04:34:47;;;;;;;2.10;1.90;;;10.40;99.90;;;;;;5005112;28;20438;-64
2022/10/02 04:37:22;;;;;;;5.03;2.70;;;10.40;99.90;;;;;;5011442;28;20431;-64
2022/10/02 04:40:06;;;;;;;2.70;2.03;;;10.40;99.90;;;;;;5009964;28;20168;-63
2022/10/02 04:42:53;;;;;;;8.33;2.63;;;10.40;99.90;;;;;;5015937;28;20426;-64
2022/10/02 04:45:51;;;;;;;9.50;2.60;;;10.40;99.90;;;;;;5011149;28;20462;-64
2022/10/02 04:48:47;;;;;;;3.00;2.23;;;10.40;99.90;;;;;;5010332;28;20482;-64
2022/10/02 04:51:45;;;;;;;2.77;2.17;;;10.40;99.90;;;;;;5001073;28;20795;-64
2022/10/02 04:54:22;;;;;;;5.60;2.10;;;10.40;99.90;;;;;;5012300;28;20450;-63
2022/10/02 04:57:14;;;;;;;3.03;1.80;;;10.40;99.90;;;;;;5002314;28;20819;-64
2022/10/02 04:59:48;;;;;;;15.30;2.50;;;10.40;99.90;;;;;;5013066;28;20808;-64
2022/10/02 05:02:53;;;;;;;4.67;2.47;;;10.40;99.90;;;;;;5011372;28;20433;-64
2022/10/02 05:05:21;;;;;;;5.90;2.23;;;10.30;99.90;;;;;;5011682;28;20447;-63
2022/10/02 05:08:05;;;;;;;9.07;2.70;;;10.40;99.90;;;;;;5011176;28;20443;-63
2022/10/02 05:11:01;;;;;;;9.80;2.83;;;10.40;99.90;;;;;;5013641;28;20787;-63
2022/10/02 05:13:27;;;;;;;7.30;2.40;;;10.40;99.90;;;;;;5005574;28;20451;-64
2022/10/02 05:16:20;;;;;;;3.60;2.67;;;10.40;99.90;;;;;;5007570;28;20509;-64
2022/10/02 05:18:51;;;;;;;4.50;2.63;;;10.40;99.90;;;;;;5010226;28;20169;-64
2022/10/02 05:21:42;;;;;;;3.43;2.70;;;10.50;99.90;;;;;;5010595;28;20518;-63
2022/10/02 05:24:45;;;;;;;8.00;3.07;;;10.50;99.90;;;;;;5002227;28;21198;-64
2022/10/02 05:28:08;;;;;;;3.50;2.43;;;10.60;99.90;;;;;;5009145;28;20843;-64
2022/10/02 05:31:01;;;;;;;3.70;2.40;;;10.60;99.90;;;;;;4968936;28;20449;-64
2022/10/02 05:33:45;;;;;;;11.10;2.70;;;10.60;99.90;;;;;;5005989;28;20554;-64
2022/10/02 05:36:28;;;;;;;5.13;3.30;;;10.70;99.90;;;;;;5011162;28;20570;-64
2022/10/02 05:39:03;;;;;;;6.30;2.80;;;10.60;99.90;;;;;;5004739;28;20435;-64
2022/10/02 05:41:48;;;;;;;3.37;2.70;;;10.70;99.90;;;;;;5010486;28;20426;-64
2022/10/02 05:44:36;;;;;;;4.10;2.43;;;10.70;99.90;;;;;;5006206;28;20554;-64
2022/10/02 05:47:25;;;;;;;6.30;2.87;;;10.60;99.90;;;;;;5010091;28;20983;-64
2022/10/02 05:50:14;;;;;;;5.57;3.57;;;10.60;99.90;;;;;;5009581;28;20419;-64
2022/10/02 05:52:52;;;;;;;5.60;2.60;;;10.60;99.90;;;;;;5011670;28;20473;-64
2022/10/02 05:55:19;;;;;;;6.47;2.80;;;10.60;99.90;;;;;;5015409;28;20556;-64
2022/10/02 05:57:49;;;;;;;4.17;2.60;;;10.60;99.90;;;;;;5005040;28;21066;-64
2022/10/02 06:00:39;;;;;;;4.50;3.07;;;10.60;99.90;;;;;;5011290;28;22721;-64
2022/10/02 06:03:22;;;;;;;8.87;4.50;;;10.60;99.90;;;;;;5002175;28;20510;-64
2022/10/02 06:05:49;;;;;;;7.83;3.07;;;10.70;99.90;;;;;;5027797;28;20419;-64
2022/10/02 06:08:19;;;;;;;4.23;3.30;;;10.60;99.90;;;;;;5013828;28;20440;-61
2022/10/02 06:10:50;;;;;;;3.70;2.63;;;10.70;99.90;;;;;;5007430;28;20463;-61
2022/10/02 06:13:39;;;;;;;6.63;3.20;;;10.70;99.90;;;;;;5007654;28;20536;-60
2022/10/02 06:16:35;;;;;;;5.77;3.27;;;10.70;99.90;;;;;;5011954;28;20514;-61
2022/10/02 06:19:21;;;;;;;8.20;3.50;;;10.80;99.90;;;;;;5007282;28;20426;-61
2022/10/02 06:21:49;;;;;;;4.30;2.60;;;10.80;99.90;;;;;;5008029;28;20431;-61
2022/10/02 06:24:24;;;;;;;3.70;3.07;;;10.90;99.90;;;;;;5013189;28;20447;-63
2022/10/02 06:27:11;;;;;;;5.30;3.30;;;10.90;99.90;;;;;;5011319;28;20403;-62
2022/10/02 06:30:02;;;;;;;5.27;3.10;;;11.00;99.90;;;;;;5009320;28;20443;-61
2022/10/02 06:32:50;;;;;;;3.17;2.73;;;11.00;99.90;;;;;;5007340;28;21037;-62
2022/10/02 06:35:41;;;;;;;4.73;3.40;;;11.10;99.90;;;;;;4979141;28;20481;-62
2022/10/02 06:39:01;;;;;;;6.10;3.50;;;11.20;99.90;;;;;;5030962;28;20399;-61
2022/10/02 06:41:46;;;;;;;6.33;3.90;;;11.20;99.90;;;;;;4956675;28;20425;-64
2022/10/02 06:44:30;;;;;;;6.20;4.30;;;11.30;99.90;;;;;;4988106;28;20539;-65
2022/10/02 06:47:05;;;;;;;5.33;4.07;;;11.40;99.90;;;;;;5005551;28;20458;-66
2022/10/02 06:49:30;;;;;;;7.27;4.13;;;11.40;99.90;;;;;;5009538;28;20412;-66
2022/10/02 06:52:21;;;;;;;7.77;3.77;;;11.40;99.90;;;;;;5022895;28;20478;-70
2022/10/02 06:55:14;;;;;;;8.43;3.57;;;11.50;99.90;;;;;;5004433;28;20241;-66
2022/10/02 06:58:08;;;;;;;6.17;3.60;;;11.50;99.90;;;;;;5008969;28;20797;-67
2022/10/02 07:00:57;;;;;;;4.30;2.87;;;11.60;99.90;;;;;;5010703;28;20953;-67
2022/10/02 07:03:23;;;;;;;11.63;3.30;;;11.60;99.90;;;;;;5007428;28;20454;-65
2022/10/02 07:06:05;;;;;;;2.90;2.60;;;11.70;99.90;;;;;;5012617;28;20948;-65
2022/10/02 07:09:13;;;;;;;5.07;2.73;;;11.70;99.90;;;;;;5016378;28;20175;-64
2022/10/02 07:11:59;;;;;;;3.77;2.67;;;11.80;99.90;;;;;;5007603;28;21023;-65
2022/10/02 07:14:51;;;;;;;6.03;2.83;;;11.90;99.90;;;;;;4974447;28;20437;-64
2022/10/02 07:18:01;;;;;;;4.90;2.80;;;12.00;99.90;;;;;;4981537;28;20431;-64
2022/10/02 07:20:44;;;;;;;5.07;3.13;;;12.10;99.90;;;;;;4900241;29;20536;-65
2022/10/02 07:23:12;;;;;;;5.10;3.30;;;12.10;99.90;;;;;;4921015;29;20412;-65
2022/10/02 07:26:20;;;;;;;7.37;3.10;;;12.20;99.90;;;;;;4962369;28;21102;-65
2022/10/02 07:29:08;;;;;;;8.13;2.70;;;12.30;99.90;;;;;;5003388;28;20438;-66
2022/10/02 07:32:12;;;;;;;5.70;2.67;;;12.40;99.90;;;;;;5020217;28;20513;-66
2022/10/02 07:35:10;;;;;;;3.80;2.40;;;12.50;99.90;;;;;;5015020;28;20426;-66
2022/10/02 07:37:57;;;;;;;6.80;2.90;;;12.50;99.90;;;;;;4989823;28;20443;-65
2022/10/02 07:40:22;;;;;;;6.87;3.03;;;12.60;99.90;;;;;;5019070;28;20780;-66
2022/10/02 07:43:07;;;;;;;3.20;2.60;;;12.60;99.90;;;;;;5029678;28;20998;-66
2022/10/02 07:45:36;;;;;;;7.50;2.37;;;12.70;99.90;;;;;;5024789;28;20188;-66
2022/10/02 07:48:07;;;;;;;6.20;1.90;;;12.80;99.90;;;;;;5021577;28;20435;-67
2022/10/02 07:50:53;;;;;;;7.03;2.50;;;12.80;99.90;;;;;;5015332;28;20430;-67
2022/10/02 07:53:23;;;;;;;5.60;2.30;;;12.80;99.90;;;;;;5025497;28;20548;-66
2022/10/02 07:55:52;;;;;;;2.40;2.20;;;12.90;99.90;;;;;;5062787;23;20500;-62
2022/10/02 07:58:50;;;;;;;5.97;3.00;;;12.90;99.90;;;;;;5053301;28;20504;-62
2022/10/02 08:01:23;;;;;;;11.83;2.20;;;13.00;99.90;;;;;;5042209;28;20421;-60
2022/10/02 08:03:57;;;;;;;2.67;1.87;;;13.10;99.90;;;;;;5025905;28;20427;-61
2022/10/02 08:06:23;;;;;;;3.13;1.90;;;13.20;99.90;;;;;;5034605;28;20457;-61
2022/10/02 08:09:08;;;;;;;3.73;1.90;;;13.20;99.90;;;;;;5012382;28;20518;-59
2022/10/02 08:11:51;;;;;;;2.77;2.30;;;13.30;99.90;;;;;;5013731;28;20258;-60
2022/10/02 08:14:36;;;;;;;2.30;1.70;;;13.40;99.90;;;;;;5018799;28;20427;-59
2022/10/02 08:17:28;;;;;;;3.90;1.67;;;13.40;99.90;;;;;;5029719;28;20445;-62
2022/10/02 08:20:01;;;;;;;1.73;1.63;;;13.50;99.90;;;;;;5033202;28;20445;-62
2022/10/02 08:22:32;;;;;;;2.07;1.87;;;13.60;99.90;;;;;;5022881;28;20427;-62
2022/10/02 08:25:06;;;;;;;4.27;1.90;;;13.70;99.90;;;;;;5031712;28;20514;-61
2022/10/02 08:27:51;;;;;;;3.03;2.10;;;13.90;99.90;;;;;;5031692;28;20438;-61
2022/10/02 08:30:17;;;;;;;2.20;2.00;;;14.10;99.90;;;;;;5027289;28;20520;-59
2022/10/02 08:32:42;;;;;;;1.60;1.50;;;14.20;99.90;;;;;;5028568;28;20493;-58
2022/10/02 08:35:17;;;;;;;4.20;1.87;;;14.30;99.90;;;;;;5029367;28;20261;-59
2022/10/02 08:38:11;;;;;;;3.00;1.60;;;14.40;99.90;;;;;;5031997;28;20256;-61
2022/10/02 08:41:04;;;;;;;2.90;1.57;;;14.50;99.90;;;;;;5026563;28;20466;-62
2022/10/02 08:44:00;;;;;;;1.60;1.50;;;14.60;99.90;;;;;;5020039;28;20431;-61
2022/10/02 08:46:47;;;;;;;3.23;1.50;;;14.60;99.90;;;;;;5027884;28;20537;-59
2022/10/02 08:49:27;;;;;;;1.50;1.10;;;14.70;99.90;;;;;;5007878;28;20433;-61
2022/10/02 08:52:14;;;;;;;4.27;1.40;;;14.70;99.90;;;;;;5023810;28;21308;-62
2022/10/02 08:55:05;;;;;;;1.57;1.13;;;14.80;99.90;;;;;;5013746;28;20749;-62
2022/10/02 08:58:09;;;;;;;1.40;1.10;;;15.00;99.90;;;;;;5012684;28;20561;-61
2022/10/02 09:00:38;;;;;;;2.10;1.00;;;15.10;99.90;;;;;;4907700;29;20596;-61
2022/10/02 09:03:53;;;;;;;1.37;1.10;;;15.10;99.90;;;;;;4892673;29;21183;-64
2022/10/02 09:06:56;;;;;;;3.43;1.10;;;15.30;99.90;;;;;;5003294;28;20459;-65
2022/10/02 09:09:30;;;;;;;1.17;1.07;;;15.60;99.90;;;;;;5026402;28;20441;-62
2022/10/02 09:12:26;;;;;;;2.47;1.00;;;15.70;99.90;;;;;;5026980;28;20866;-62
2022/10/02 09:15:06;;;;;;;1.40;1.00;;;15.70;99.90;;;;;;5025927;28;20430;-61
2022/10/02 09:17:54;;;;;;;1.87;1.10;;;15.80;99.90;;;;;;5027468;28;20981;-61
2022/10/02 09:20:26;;;;;;;2.30;1.30;;;16.00;99.90;;;;;;5023851;28;20461;-60
2022/10/02 09:22:54;;;;;;;1.50;1.10;;;16.00;99.90;;;;;;5024392;28;20590;-61
2022/10/02 09:25:34;;;;;;;2.10;1.03;;;16.20;99.90;;;;;;5023567;28;20442;-63
2022/10/02 09:28:06;;;;;;;0.80;0.80;;;16.30;99.90;;;;;;5025036;28;20434;-62
2022/10/02 09:31:02;;;;;;;1.20;1.10;;;16.40;99.90;;;;;;5012863;28;20514;-62
2022/10/02 09:34:05;;;;;;;1.40;1.10;;;16.40;99.90;;;;;;5030717;28;20481;-62
2022/10/02 09:37:03;;;;;;;0.97;0.80;;;16.40;99.90;;;;;;5027493;28;20457;-63
2022/10/02 09:39:31;;;;;;;1.73;1.10;;;16.40;99.90;;;;;;4925318;28;20455;-61
2022/10/02 09:42:35;;;;;;;1.37;0.80;;;16.40;99.90;;;;;;5026718;28;20446;-61
2022/10/02 09:45:06;;;;;;;1.13;1.00;;;16.50;99.90;;;;;;4959596;28;20433;-61
2022/10/02 09:47:47;;;;;;;0.80;0.80;;;16.50;99.90;;;;;;4957185;28;20469;-61
2022/10/02 09:50:52;;;;;;;0.90;0.90;;;16.50;99.90;;;;;;4992023;28;20528;-60
2022/10/02 09:53:38;;;;;;;0.90;0.90;;;16.40;99.90;;;;;;5011761;28;20469;-58
2022/10/02 09:56:43;;;;;;;1.20;1.10;;;16.30;99.90;;;;;;5023793;28;20940;-61
2022/10/02 09:59:11;;;;;;;0.80;0.80;;;16.30;99.90;;;;;;5019918;28;20863;-59
2022/10/02 10:02:15;;;;;;;2.40;0.90;;;16.30;99.90;;;;;;5022548;28;20909;-60
2022/10/02 10:04:57;;;;;;;1.23;1.13;;;16.30;99.90;;;;;;5010100;28;20434;-60
2022/10/02 10:07:59;;;;;;;1.27;1.07;;;16.40;99.90;;;;;;5016748;28;20855;-59
2022/10/02 10:10:51;;;;;;;1.00;0.93;;;16.40;99.90;;;;;;5003628;28;20515;-60
2022/10/02 10:13:20;;;;;;;0.90;0.90;;;16.40;99.90;;;;;;5019748;28;20471;-59
2022/10/02 10:16:00;;;;;;;2.20;1.00;;;16.40;99.90;;;;;;5022617;28;20476;-60
2022/10/02 10:19:03;;;;;;;1.00;1.00;;;16.20;99.90;;;;;;5023818;28;20443;-62
2022/10/02 10:21:59;;;;;;;1.10;0.83;;;16.10;99.90;;;;;;5016232;28;20433;-61
2022/10/02 10:24:54;;;;;;;1.40;1.07;;;16.10;99.90;;;;;;5026169;28;20438;-62
2022/10/02 10:27:31;;;;;;;1.10;1.00;;;16.00;99.90;;;;;;5029292;28;20458;-61
2022/10/02 10:30:35;;;;;;;2.20;1.20;;;16.00;99.90;;;;;;5024391;28;20565;-60
2022/10/02 10:33:28;;;;;;;1.20;1.00;;;16.00;99.90;;;;;;5031678;28;20971;-62
2022/10/02 10:38:31;;;;;;;1.80;0.90;;;16.00;99.90;;;;;;5028013;28;20477;-61
2022/10/02 10:39:33;;;;;;;1.10;1.00;;;16.00;99.90;;;;;;5021027;28;20422;-63
2022/10/02 10:42:37;;;;;;;0.90;0.90;;;15.90;99.90;;;;;;5027098;28;20431;-61
2022/10/02 10:45:33;;;;;;;1.93;1.37;;;15.80;99.90;;;;;;5026176;28;20422;-61
2022/10/02 10:48:12;;;;;;;1.17;0.87;;;15.70;99.90;;;;;;5018644;28;20463;-61
2022/10/02 10:51:13;;;;;;;2.07;1.20;;;15.60;99.90;;;;;;5027980;28;20445;-63
2022/10/02 10:54:13;;;;;;;2.00;1.23;;;15.50;99.90;;;;;;5034714;28;20489;-63
2022/10/02 10:56:48;;;;;;;1.60;1.10;;;15.50;99.90;;;;;;5026224;28;20469;-63
2022/10/02 10:59:28;;;;;;;2.20;0.90;;;15.50;99.90;;;;;;5024594;28;20449;-62
2022/10/02 11:02:34;;;;;;;1.10;1.00;;;15.50;99.90;;;;;;5023205;28;20711;-61
2022/10/02 11:05:09;;;;;;;0.83;0.70;;;15.50;99.90;;;;;;5023006;28;20418;-60
2022/10/02 11:07:54;;;;;;;2.23;1.50;;;15.50;99.90;;;;;;5028881;28;20480;-62
2022/10/02 11:10:26;;;;;;;1.67;1.20;;;15.50;99.90;;;;;;5009846;28;20461;-62
2022/10/02 11:13:22;;;;;;;0.87;0.87;;;15.50;99.90;;;;;;5026863;28;20541;-60
2022/10/02 11:15:48;;;;;;;1.43;0.97;;;15.60;99.90;;;;;;4988006;28;20999;-62
2022/10/02 11:18:50;;;;;;;1.10;0.90;;;15.80;99.90;;;;;;5029577;28;20521;-60
2022/10/02 11:21:40;;;;;;;0.90;0.90;;;15.90;99.90;;;;;;5024465;28;20179;-63
2022/10/02 11:24:50;;;;;;;1.53;1.10;;;16.10;99.90;;;;;;5022608;28;20496;-60
2022/10/02 11:27:39;;;;;;;1.23;1.10;;;16.20;99.90;;;;;;5021583;28;20944;-62
2022/10/02 11:30:19;;;;;;;0.90;0.90;;;16.30;99.90;;;;;;4970965;28;20434;-61
2022/10/02 11:33:03;;;;;;;0.80;0.80;;;16.30;99.90;;;;;;5021786;28;21336;-60
2022/10/02 11:35:58;;;;;;;1.00;0.90;;;16.30;99.90;;;;;;5038662;28;20433;-61
2022/10/02 11:38:37;;;;;;;1.00;0.97;;;16.20;99.90;;;;;;5022617;28;20450;-62
2022/10/02 11:41:08;;;;;;;0.77;0.77;;;16.20;99.90;;;;;;5021552;28;20535;-62
2022/10/02 11:44:04;;;;;;;0.87;0.87;;;16.10;99.90;;;;;;5028749;28;21885;-62
2022/10/02 11:46:51;;;;;;;1.10;1.00;;;16.10;99.90;;;;;;5025330;28;20533;-61
2022/10/02 11:49:57;;;;;;;1.33;1.23;;;16.00;99.90;;;;;;5025435;28;20431;-61
2022/10/02 11:52:42;;;;;;;1.07;1.07;;;16.00;99.90;;;;;;5026620;28;20524;-61
2022/10/02 11:55:21;;;;;;;1.83;1.00;;;15.90;99.90;;;;;;5009262;28;20484;-61
2022/10/02 11:58:05;;;;;;;3.33;1.63;;;15.90;99.90;;;;;;5021574;28;20434;-60
2022/10/02 12:01:06;;;;;;;0.87;0.80;;;15.80;99.90;;;;;;5025370;28;20436;-59
2022/10/02 12:03:51;;;;;;;1.20;0.80;;;15.90;99.90;;;;;;5030459;28;20905;-60
2022/10/02 12:06:47;;;;;;;1.30;1.07;;;15.90;99.90;;;;;;5022620;28;21001;-60
2022/10/02 12:09:31;;;;;;;0.90;0.70;;;16.00;99.90;;;;;;5026929;28;20511;-60
2022/10/02 12:12:34;;;;;;;0.80;0.80;;;16.00;99.90;;;;;;5034750;28;20521;-60
2022/10/02 12:15:16;;;;;;;0.70;0.70;;;16.10;99.90;;;;;;5025874;28;20441;-60
2022/10/02 12:17:58;;;;;;;1.40;0.90;;;16.60;99.90;;;;;;5022173;28;20418;-58
2022/10/02 12:26:57;;;;;;;1.07;1.03;;;17.30;99.90;;;;;;5017812;28;20543;-59
2022/10/02 12:29:39;;;;;;;1.17;0.97;;;17.30;99.90;;;;;;5020499;28;20772;-61
2022/10/02 12:32:14;;;;;;;0.80;0.80;;;17.30;99.90;;;;;;5021611;28;22221;-60
2022/10/02 12:35:16;;;;;;;0.70;0.70;;;17.30;99.90;;;;;;5021788;28;20497;-60
2022/10/02 12:38:00;;;;;;;0.90;0.90;;;17.30;99.90;;;;;;5027638;28;20433;-60
2022/10/02 12:40:33;;;;;;;1.20;0.70;;;17.30;99.90;;;;;;5025243;28;20564;-61
2022/10/02 12:43:37;;;;;;;0.80;0.73;;;17.40;99.90;;;;;;5025368;28;20971;-61
2022/10/02 12:46:17;;;;;;;1.60;0.93;;;17.30;99.90;;;;;;5022618;28;21038;-61
2022/10/02 12:49:29;;;;;;;1.30;1.20;;;17.10;99.90;;;;;;5027924;28;20452;-60
2022/10/02 12:52:33;;;;;;;0.80;0.80;;;17.00;99.90;;;;;;5000515;28;20781;-59
2022/10/02 12:55:04;;;;;;;2.53;1.10;;;16.90;99.90;;;;;;5026190;28;20474;-60
2022/10/02 12:57:59;;;;;;;1.17;1.00;;;17.20;99.90;;;;;;5029239;28;20561;-60
2022/10/02 13:00:50;;;;;;;1.50;0.80;;;17.70;99.90;;;;;;5029858;28;20407;-59
2022/10/02 13:04:07;;;;;;;0.83;0.80;;;17.90;99.90;;;;;;5008515;28;20776;-60
2022/10/02 13:06:54;;;;;;;2.67;0.80;;;18.00;99.90;;;;;;5014178;28;20468;-61
2022/10/02 13:09:32;;;;;;;0.80;0.80;;;18.10;99.90;;;;;;5027817;28;20434;-60
2022/10/02 13:12:22;;;;;;;2.33;0.77;;;18.50;99.90;;;;;;5024951;28;21012;-61
2022/10/02 13:15:24;;;;;;;2.23;0.77;;;18.80;99.90;;;;;;5023563;28;20432;-61
2022/10/02 13:18:12;;;;;;;0.77;0.77;;;19.40;99.90;;;;;;5028018;28;20422;-62
2022/10/02 13:20:46;;;;;;;0.70;0.70;;;20.10;99.90;;;;;;5024026;28;20444;-61
2022/10/02 13:23:50;;;;;;;0.90;0.70;;;20.60;98.10;;;;;;5040742;28;20509;-60
2022/10/02 13:26:25;;;;;;;0.70;0.70;;;21.10;99.30;;;;;;4969373;28;20461;-61
2022/10/02 13:29:00;;;;;;;1.10;0.70;;;21.10;91.80;;;;;;5022654;28;20430;-61
2022/10/02 13:31:56;;;;;;;0.97;0.83;;;20.70;92.60;;;;;;5025063;28;20418;-61
2022/10/02 13:34:40;;;;;;;1.67;0.90;;;20.10;95.00;;;;;;5024434;28;20462;-62
2022/10/02 13:37:26;;;;;;;0.97;0.80;;;19.70;98.60;;;;;;5021999;28;20446;-62
2022/10/02 13:40:30;;;;;;;0.80;0.80;;;19.30;98.90;;;;;;5025283;28;20909;-65
2022/10/02 13:43:23;;;;;;;0.63;0.63;;;19.30;99.90;;;;;;5009158;28;20461;-61
2022/10/02 13:46:01;;;;;;;0.93;0.80;;;19.70;96.20;;;;;;5030672;28;20446;-63
2022/10/02 13:49:08;;;;;;;0.90;0.73;;;20.00;93.20;;;;;;5015260;28;20435;-61
2022/10/02 13:51:56;;;;;;;1.23;0.70;;;20.00;86.90;;;;;;5010420;28;20478;-61
2022/10/02 13:54:46;;;;;;;1.10;0.67;;;19.70;90.90;;;;;;5027831;28;20916;-61
2022/10/02 13:57:42;;;;;;;3.10;1.10;;;19.40;95.90;;;;;;4967669;28;20985;-58
2022/10/02 14:00:37;;;;;;;0.80;0.77;;;19.10;99.30;;;;;;5025968;28;20415;-59
2022/10/02 14:03:24;;;;;;;0.70;0.70;;;18.80;99.90;;;;;;5018847;28;20449;-58
2022/10/02 14:06:11;;;;;;;0.90;0.90;;;18.70;99.90;;;;;;5028844;28;20552;-57
2022/10/02 14:09:25;;;;;;;1.83;1.00;;;18.50;99.90;;;;;;5023305;28;20442;-58
2022/10/02 14:11:59;;;;;;;3.03;0.80;;;18.40;99.90;;;;;;5018605;22;20628;-67
2022/10/02 14:14:34;;;;;;;1.20;0.90;;;18.50;99.90;;;;;;5021573;28;20431;-64
2022/10/02 14:17:13;;;;;;;0.73;0.73;;;18.70;99.90;;;;;;5007732;28;20464;-65